Latest Weather Observations for Adelaide Airport

IDS60801

Issued at 9:31 pm CST Sunday 25 September 2016 (issued every 30 minutes, with the page automatically refreshed every 10 minutes)

About weather observations | Map of weather stations | Latest weather observations for SA | Other Formats
Station Details ID: 023034 Name: ADELAIDE AIRPORT Lat: -34.95 Lon: 138.52 Height: 2.0 m
Data from the previous 72 hours. | See also: Recent months at Adelaide Airport
Date/Time
CST
Temp
°C
App
Temp
°C
Dew
Point
°C
Rel
Hum
%
Delta-T
°C
Wind Press
QNH
hPa
Press
MSL
hPa
Rain since
9am
mm
Dir  Spd
km/h
Gust
km/h
Spd
kts
Gust
kts
25/09:00pm 12.6 10.5 6.7 67 2.8 NW 7 9 4 5 1015.4 1015.4 0.2
25/08:30pm 12.6 10.4 6.0 64 3.1 NW 7 9 4 5 1015.2 1015.2 0.2
25/08:00pm 12.7 10.1 5.9 63 3.2 NW 9 13 5 7 1015.1 1015.1 0.2
25/07:30pm 13.0 9.6 7.5 69 2.7 WNW 15 17 8 9 1014.9 1014.9 0.2
25/07:00pm 12.7 9.6 7.1 69 2.7 NW 13 17 7 9 1014.5 1014.5 0.2
25/06:30pm 12.9 8.8 6.4 64 3.1 NW 17 19 9 10 1014.3 1014.3 0.2
25/06:00pm 13.2 9.9 6.5 64 3.2 NNW 13 17 7 9 1013.9 1013.9 0.2
25/05:30pm 14.2 10.0 5.5 56 4.1 WNW 17 20 9 11 1013.9 1013.9 0.2
25/05:00pm 14.4 8.5 5.8 56 4.1 NNW 26 32 14 17 1013.8 1013.8 0.2
25/04:30pm 14.0 9.2 5.5 56 4.0 NW 20 28 11 15 1013.8 1013.8 0.2
25/04:00pm 14.4 9.4 4.4 51 4.6 NW 20 30 11 16 1013.7 1013.7 0.2
25/03:30pm 14.8 10.6 3.9 48 5.0 NW 15 20 8 11 1013.8 1013.8 0.2
25/03:00pm 14.5 10.4 4.3 50 4.7 NW 15 22 8 12 1013.9 1013.9 0.2
25/02:30pm 14.0 9.3 5.3 55 4.1 WNW 19 26 10 14 1014.2 1014.2 0.2
25/02:00pm 14.1 8.5 3.5 49 4.8 WNW 22 28 12 15 1014.6 1014.6 0.2
25/01:30pm 14.5 10.4 6.2 57 4.0 WNW 17 24 9 13 1014.7 1014.7 0.2
25/01:00pm 15.1 10.7 6.7 57 4.1 WNW 19 26 10 14 1014.8 1014.8 0.2
25/12:30pm 14.2 10.5 4.4 51 4.5 WNW 13 26 7 14 1015.2 1015.2 0.2
25/12:00pm 14.4 10.7 4.7 52 4.5 W 13 20 7 11 1015.3 1015.3 0.2
25/11:30am 14.1 10.5 5.1 54 4.2 W 13 20 7 11 1015.8 1015.8 0.2
25/11:00am 13.5 10.4 5.6 59 3.7 SW 11 17 6 9 1015.9 1015.9 0.2
25/10:30am 13.0 9.7 7.9 71 2.5 SW 15 22 8 12 1016.0 1016.0 0.2
25/10:00am 13.5 10.4 5.6 59 3.7 SW 11 19 6 10 1016.3 1016.3 0.2
25/09:30am 13.1 10.2 6.4 64 3.2 WSW 11 17 6 9 1016.2 1016.2 0.0
25/09:00am 12.0 9.5 6.5 69 2.6 S 9 13 5 7 1016.4 1016.4 1.4
25/08:30am 10.8 5.0 7.9 82 1.4 SW 28 35 15 19 1016.4 1016.4 1.4
25/08:00am 11.1 6.7 6.6 74 2.1 W 19 30 10 16 1016.2 1016.2 1.4
25/07:30am 10.9 10.1 8.2 83 1.3 SW 2 7 1 4 1015.7 1015.7 1.4
25/07:00am 10.5 6.4 8.0 84 1.2 SW 19 28 10 15 1015.3 1015.3 1.4
25/06:30am 11.9 8.3 5.2 63 3.1 WSW 13 17 7 9 1014.7 1014.7 0.8
25/06:00am 11.6 6.7 4.3 61 3.3 WSW 19 24 10 13 1014.4 1014.4 0.8
25/05:30am 11.7 7.2 4.4 61 3.3 SW 17 20 9 11 1014.0 1014.0 0.8
25/05:00am 11.3 6.9 4.7 64 3.0 SW 17 24 9 13 1013.5 1013.5 0.8
25/04:30am 11.3 6.4 3.9 60 3.3 SW 19 26 10 14 1013.4 1013.4 0.8
25/04:00am 11.7 6.9 5.4 65 2.9 WSW 20 28 11 15 1013.3 1013.3 0.8
25/03:30am 11.6 6.8 4.8 63 3.1 SW 19 24 10 13 1013.2 1013.2 0.8
25/03:00am 11.4 6.5 4.0 60 3.3 SW 19 24 10 13 1012.7 1012.7 0.8
25/02:30am 11.3 6.7 3.6 59 3.4 SW 17 24 9 13 1012.5 1012.5 0.8
25/02:00am 11.6 6.6 4.8 63 3.1 SW 20 28 11 15 1012.8 1012.8 0.8
25/01:30am 11.9 7.0 4.1 59 3.5 SW 19 26 10 14 1013.1 1013.1 0.8
25/01:00am 11.9 6.7 3.8 57 3.6 SW 20 32 11 17 1013.0 1013.0 0.8
25/12:30am 12.0 5.9 2.6 52 4.1 SW 24 35 13 19 1013.0 1013.0 0.8
25/12:00am 12.1 6.6 1.8 49 4.4 SW 20 30 11 16 1013.0 1013.0 0.8
 
Date/Time
CST
Temp
°C
App
Temp
°C
Dew
Point
°C
Rel
Hum
%
Delta-T
°C
Wind Press
QNH
hPa
Press
MSL
hPa
Rain since
9am
mm
Dir  Spd
km/h
Gust
km/h
Spd
kts
Gust
kts
24/11:30pm 11.8 5.8 3.4 56 3.7 SW 24 33 13 18 1012.9 1012.9 0.8
24/11:00pm 12.0 6.0 3.1 54 3.9 SW 24 33 13 18 1012.9 1012.9 0.8
24/10:30pm 12.4 7.1 4.8 60 3.5 SSW 22 32 12 17 1012.8 1012.8 0.8
24/10:00pm 12.4 7.3 6.0 65 3.0 SSW 22 33 12 18 1012.6 1012.6 0.8
24/09:30pm 12.4 7.9 6.0 65 3.0 SSW 19 26 10 14 1012.5 1012.5 0.8
24/09:00pm 12.4 6.9 5.8 64 3.1 SSW 24 32 13 17 1012.3 1012.3 0.8
24/08:30pm 12.8 6.8 5.5 61 3.4 SSW 26 37 14 20 1012.0 1012.0 0.8
24/08:00pm 12.9 7.1 4.4 56 3.9 SSW 24 35 13 19 1011.4 1011.4 0.6
24/07:30pm 13.3 7.6 6.9 65 3.1 SSW 26 33 14 18 1011.0 1011.0 0.6
24/07:00pm 13.3 8.4 7.1 66 3.0 SSW 22 32 12 17 1010.3 1010.3 0.6
24/06:30pm 12.6 7.7 10.1 85 1.3 WSW 26 39 14 21 1009.8 1009.8 0.6
24/06:00pm 13.2 7.6 8.8 74 2.2 SW 28 35 15 19 1009.2 1009.2 0.6
24/05:30pm 13.7 9.4 9.2 74 2.3 SW 22 35 12 19 1008.7 1008.7 0.6
24/05:00pm 14.3 9.6 9.2 71 2.6 SW 24 33 13 18 1008.2 1008.2 0.6
24/04:30pm 14.9 9.7 10.3 74 2.4 SW 28 33 15 18 1007.7 1007.7 0.6
24/04:00pm 15.1 9.4 9.7 70 2.8 SW 30 39 16 21 1007.2 1007.2 0.6
24/03:30pm 14.7 8.6 9.7 72 2.6 SW 32 39 17 21 1006.7 1006.7 0.6
24/03:00pm 14.9 10.0 9.9 72 2.6 SW 26 32 14 17 1006.6 1006.6 0.6
24/02:30pm 15.1 11.0 10.1 72 2.6 SW 22 30 12 16 1006.5 1006.5 0.6
24/02:00pm 14.8 10.9 10.8 77 2.1 SW 22 30 12 16 1006.4 1006.4 0.6
24/01:30pm 14.5 10.3 11.1 80 1.8 WSW 24 30 13 16 1006.3 1006.3 0.6
24/01:00pm 14.5 11.7 11.5 82 1.6 WSW 17 20 9 11 1006.4 1006.4 0.6
24/12:30pm 13.8 11.3 12.3 91 0.8 WSW 17 22 9 12 1006.4 1006.4 0.6
24/12:00pm 13.6 8.3 11.3 86 1.2 NW 30 37 16 20 1006.4 1006.4 0.4
24/11:30am 16.3 11.9 12.9 80 1.9 NNW 28 35 15 19 1006.2 1006.2 0.2
24/11:00am 15.7 11.3 13.0 84 1.5 NNW 28 35 15 19 1006.2 1006.2 0.2
24/10:30am 14.8 10.3 12.6 87 1.2 NNW 28 37 15 20 1006.4 1006.4 0.2
24/10:00am 13.8 10.7 12.3 91 0.8 N 20 28 11 15 1006.5 1006.5 0.2
24/09:53am 13.6 10.6 11.9 89 0.9 N 19 28 10 15 1006.6 1006.6 0.2
24/09:45am 13.5 10.3 12.0 91 0.8 N 20 28 11 15 1006.6 1006.6 0.2
24/09:30am 13.6 10.6 11.9 89 0.9 N 19 26 10 14 1006.5 1006.5 0.2
24/09:00am 12.9 9.7 11.4 91 0.8 NNE 19 28 10 15 1006.5 1006.5 1.2
24/08:30am 12.7 8.8 10.8 88 1.0 NNE 22 28 12 15 1006.5 1006.5 0.6
24/08:00am 12.8 7.3 10.7 87 1.1 NNE 30 39 16 21 1006.2 1006.2 0.4
24/07:47am 13.3 8.6 10.8 85 1.3 NNE 26 39 14 21 1006.4 1006.4 0.2
24/07:30am 13.4 9.8 10.7 84 1.4 NE 20 28 11 15 1006.0 1006.0 0.0
24/07:00am 14.3 9.7 10.9 80 1.8 NNE 26 35 14 19 1005.8 1005.8 0.0
24/06:30am 14.8 10.0 10.2 74 2.4 NNE 26 33 14 18 1005.6 1005.6 0.0
24/06:00am 14.2 8.2 8.7 69 2.8 NNE 30 35 16 19 1005.5 1005.5 0.0
24/05:30am 14.5 8.7 7.9 64 3.3 N 28 37 15 20 1004.8 1004.8 0.0
24/05:00am 15.4 9.6 6.4 55 4.4 NNE 26 33 14 18 1004.1 1004.1 0.0
24/04:30am 15.9 10.3 5.5 50 5.0 NNE 24 37 13 20 1004.3 1004.3 0.0
24/04:00am 16.0 10.0 5.4 49 5.1 N 26 37 14 20 1004.0 1004.0 0.0
24/03:30am 16.2 9.0 5.1 47 5.3 NNE 32 44 17 24 1003.9 1003.9 0.0
24/03:00am 16.7 10.5 4.4 44 5.8 NNE 26 35 14 19 1004.9 1004.9 0.0
24/02:30am 16.3 11.0 5.0 47 5.4 NNE 22 28 12 15 1005.0 1005.0 0.0
24/02:00am 16.3 11.4 5.0 47 5.4 NNE 20 26 11 14 1005.1 1005.1 0.0
24/01:30am 15.8 11.6 5.6 50 4.9 NE 17 20 9 11 1005.6 1005.6 0.0
24/01:00am 15.8 11.6 5.6 50 4.9 NE 17 17 9 9 1005.9 1005.9 0.0
24/12:30am 15.0 10.9 6.3 56 4.2 NE 17 19 9 10 1005.9 1005.9 0.0
24/12:00am 15.0 11.0 6.8 58 4.0 NE 17 19 9 10 1006.1 1006.1 0.0
 
Date/Time
CST
Temp
°C
App
Temp
°C
Dew
Point
°C
Rel
Hum
%
Delta-T
°C
Wind Press
QNH
hPa
Press
MSL
hPa
Rain since
9am
mm
Dir  Spd
km/h
Gust
km/h
Spd
kts
Gust
kts
23/11:30pm 13.4 9.6 7.7 68 2.8 NE 17 20 9 11 1006.2 1006.2 0.0
23/11:00pm 14.3 10.5 7.6 64 3.3 NE 17 19 9 10 1006.4 1006.4 0.0
23/10:30pm 14.0 10.4 8.4 69 2.8 NE 17 19 9 10 1006.9 1006.9 0.0
23/10:00pm 15.1 11.4 8.1 63 3.5 NE 17 19 9 10 1007.2 1007.2 0.0
23/09:30pm 14.8 10.8 8.2 64 3.3 NE 19 24 10 13 1007.2 1007.2 0.0
23/09:00pm 15.1 11.6 8.6 65 3.3 NE 17 19 9 10 1007.3 1007.3 0.0
23/08:30pm 14.9 12.2 9.0 68 3.0 NE 13 17 7 9 1007.4 1007.4 0.0
23/08:00pm 15.3 12.5 8.4 63 3.5 NE 13 15 7 8 1007.4 1007.4 0.0
23/07:30pm 16.9 13.8 7.3 53 4.8 NNE 13 17 7 9 1007.5 1007.5 0.0
23/07:00pm 17.2 14.1 7.2 51 5.0 NNE 13 17 7 9 1007.4 1007.4 0.0
23/06:30pm 17.6 14.1 7.0 50 5.3 N 15 24 8 13 1007.0 1007.0 0.0
23/06:00pm 18.5 14.5 6.5 45 6.0 N 17 24 9 13 1007.0 1007.0 0.0
23/05:30pm 18.9 15.5 6.0 43 6.4 N 13 20 7 11 1007.2 1007.2 0.0
23/05:00pm 18.5 15.5 5.9 43 6.2 NW 11 15 6 8 1007.4 1007.4 0.0
23/04:30pm 18.3 14.2 6.4 45 5.9 WNW 17 20 9 11 1007.8 1007.8 0.0
23/04:00pm 18.3 13.8 6.9 47 5.7 WNW 20 26 11 14 1008.0 1008.0 0.0
23/03:30pm 18.0 12.9 6.0 45 5.9 NW 22 28 12 15 1008.0 1008.0 0.0
23/03:00pm 18.1 13.2 6.7 47 5.7 NW 22 30 12 16 1008.2 1008.2 0.0
23/02:30pm 17.9 13.4 8.4 53 4.9 WNW 22 30 12 16 1008.6 1008.6 0.0
23/02:00pm 18.1 13.5 9.6 57 4.5 N 24 33 13 18 1008.8 1008.8 0.0
23/01:30pm 19.3 13.2 6.5 43 6.4 NNE 28 37 15 20 1009.2 1009.2 0.0
23/01:00pm 19.4 13.7 6.7 43 6.4 N 26 37 14 20 1010.0 1010.0 0.0
23/12:30pm 18.8 12.2 6.1 43 6.3 NNE 30 41 16 22 1010.5 1010.5 0.0
23/12:00pm 18.6 11.8 4.9 40 6.6 NNE 30 37 16 20 1011.1 1011.1 0.0
23/11:30am 18.0 11.4 6.2 46 5.8 NNE 30 41 16 22 1011.6 1011.6 0.0
23/11:00am 17.5 10.6 6.3 47 5.5 NNE 32 39 17 21 1012.2 1012.2 0.0
23/10:30am 16.6 9.5 5.3 47 5.4 NNE 32 39 17 21 1012.7 1012.7 0.0
23/10:00am 16.1 9.7 5.2 48 5.2 NNE 28 35 15 19 1013.1 1013.1 0.0
23/09:30am 16.0 9.1 4.8 47 5.3 NNE 30 41 16 22 1013.5 1013.5 0.0
23/09:00am 15.1 7.7 4.0 47 5.1 NNE 32 37 17 20 1013.6 1013.6 0.0
23/08:30am 14.1 7.5 4.0 50 4.6 NNE 28 39 15 21 1014.0 1014.0 0.0
23/08:00am 13.1 7.2 4.1 54 4.1 NNE 24 32 13 17 1014.5 1014.5 0.0
23/07:30am 11.7 6.8 5.2 64 3.0 NE 20 26 11 14 1014.9 1014.9 0.0
23/07:00am 10.6 6.2 4.8 67 2.6 NE 17 20 9 11 1015.0 1015.0 0.0
23/06:30am 9.4 5.3 4.4 71 2.2 NE 15 17 8 9 1015.1 1015.1 0.0
23/06:00am 7.6 3.5 4.1 78 1.5 NE 15 15 8 8 1015.1 1015.1 0.0
23/05:30am 7.5 4.2 4.3 80 1.4 NNE 11 13 6 7 1015.3 1015.3 0.0
23/05:00am 6.2 4.1 4.1 86 0.9 NE 4 7 2 4 1015.8 1015.8 0.0
23/04:30am 5.8 2.8 3.9 88 0.8 E 9 11 5 6 1015.9 1015.9 0.0
23/04:00am 7.4 4.4 4.2 80 1.4 NE 9 9 5 5 1016.3 1016.3 0.0
23/03:30am 8.7 5.8 4.4 74 1.9 NNE 9 11 5 6 1016.1 1016.1 0.0
23/03:00am 8.5 5.1 4.1 74 1.9 NNE 11 11 6 6 1015.8 1015.8 0.0
23/02:30am 8.4 5.1 4.8 78 1.6 NNE 11 13 6 7 1016.1 1016.1 0.0
23/02:00am 8.6 5.7 4.8 77 1.7 NNE 9 11 5 6 1016.5 1016.5 0.0
23/01:30am 8.6 5.8 5.0 78 1.6 NNE 9 11 5 6 1016.9 1016.9 0.0
23/01:00am 8.1 5.2 4.9 80 1.4 NNE 9 9 5 5 1017.3 1017.3 0.0
23/12:30am 8.6 5.0 5.2 79 1.5 E 13 13 7 7 1017.2 1017.2 0.0
23/12:00am 8.7 5.6 5.6 81 1.4 E 11 15 6 8 1017.6 1017.6 0.0
 
Date/Time
CST
Temp
°C
App
Temp
°C
Dew
Point
°C
Rel
Hum
%
Delta-T
°C
Wind Press
QNH
hPa
Press
MSL
hPa
Rain since
9am
mm
Dir  Spd
km/h
Gust
km/h
Spd
kts
Gust
kts
22/11:30pm 9.3 5.4 5.5 77 1.7 E 15 19 8 10 1018.0 1018.0 0.0
22/11:00pm 10.4 8.1 5.6 72 2.2 ENE 7 9 4 5 1018.5 1018.5 0.0
22/10:30pm 11.2 8.6 6.0 70 2.4 ENE 9 11 5 6 1018.8 1018.8 0.0
22/10:00pm 11.7 9.1 6.1 68 2.6 ESE 9 13 5 7 1019.0 1019.0 0.0

Other Formats:

Comma delimited format used in spreadsheet applications
http://www.bom.gov.au/fwo/IDS60801/IDS60801.94672.axf

JavaScript Object Notation format (JSON) in row-major order
http://www.bom.gov.au/fwo/IDS60801/IDS60801.94672.json